sensor_id;sensor_type;location;lat;lon;timestamp;P1;P2;P0
40371;PMS5003;28564;53.346;-6.554;2023-03-23T00:00:54;5;1;
40371;PMS5003;28564;53.346;-6.554;2023-03-23T00:03:22;3;1;
40371;PMS5003;28564;53.346;-6.554;2023-03-23T00:05:50;1;1;
40371;PMS5003;28564;53.346;-6.554;2023-03-23T00:08:18;1;1;
40371;PMS5003;28564;53.346;-6.554;2023-03-23T00:10:47;3;3;
40371;PMS5003;28564;53.346;-6.554;2023-03-23T00:13:15;4;1;
40371;PMS5003;28564;53.346;-6.554;2023-03-23T00:15:42;1;1;
40371;PMS5003;28564;53.346;-6.554;2023-03-23T00:18:10;0;0;
40371;PMS5003;28564;53.346;-6.554;2023-03-23T00:20:37;0;0;
40371;PMS5003;28564;53.346;-6.554;2023-03-23T00:23:05;2;0;
40371;PMS5003;28564;53.346;-6.554;2023-03-23T00:25:34;2;2;
40371;PMS5003;28564;53.346;-6.554;2023-03-23T00:28:01;2;2;
40371;PMS5003;28564;53.346;-6.554;2023-03-23T00:30:28;1;1;
40371;PMS5003;28564;53.346;-6.554;2023-03-23T00:32:55;4;1;
40371;PMS5003;28564;53.346;-6.554;2023-03-23T00:35:23;3;1;
40371;PMS5003;28564;53.346;-6.554;2023-03-23T00:37:50;6;3;
40371;PMS5003;28564;53.346;-6.554;2023-03-23T00:40:17;5;2;
40371;PMS5003;28564;53.346;-6.554;2023-03-23T00:42:44;2;1;
40371;PMS5003;28564;53.346;-6.554;2023-03-23T00:45:12;3;2;
40371;PMS5003;28564;53.346;-6.554;2023-03-23T00:47:39;3;3;
40371;PMS5003;28564;53.346;-6.554;2023-03-23T00:50:07;2;1;
40371;PMS5003;28564;53.346;-6.554;2023-03-23T00:52:34;3;2;
40371;PMS5003;28564;53.346;-6.554;2023-03-23T00:55:02;5;1;
40371;PMS5003;28564;53.346;-6.554;2023-03-23T00:57:30;4;3;
40371;PMS5003;28564;53.346;-6.554;2023-03-23T00:59:57;5;2;
40371;PMS5003;28564;53.346;-6.554;2023-03-23T01:02:24;2;2;
40371;PMS5003;28564;53.346;-6.554;2023-03-23T01:04:52;6;3;
40371;PMS5003;28564;53.346;-6.554;2023-03-23T01:07:19;4;3;
40371;PMS5003;28564;53.346;-6.554;2023-03-23T01:09:47;5;2;
40371;PMS5003;28564;53.346;-6.554;2023-03-23T01:12:15;2;1;
40371;PMS5003;28564;53.346;-6.554;2023-03-23T01:14:42;4;3;
40371;PMS5003;28564;53.346;-6.554;2023-03-23T01:17:10;2;2;
40371;PMS5003;28564;53.346;-6.554;2023-03-23T01:19:38;7;3;
40371;PMS5003;28564;53.346;-6.554;2023-03-23T01:22:05;6;2;
40371;PMS5003;28564;53.346;-6.554;2023-03-23T01:24:32;2;2;
40371;PMS5003;28564;53.346;-6.554;2023-03-23T01:27:00;3;3;
40371;PMS5003;28564;53.346;-6.554;2023-03-23T01:29:34;5;3;
40371;PMS5003;28564;53.346;-6.554;2023-03-23T01:32:02;5;2;
40371;PMS5003;28564;53.346;-6.554;2023-03-23T01:34:30;4;2;
40371;PMS5003;28564;53.346;-6.554;2023-03-23T01:36:57;5;2;
40371;PMS5003;28564;53.346;-6.554;2023-03-23T01:39:25;3;2;
40371;PMS5003;28564;53.346;-6.554;2023-03-23T01:41:53;1;1;
40371;PMS5003;28564;53.346;-6.554;2023-03-23T01:45:27;2;2;
40371;PMS5003;28564;53.346;-6.554;2023-03-23T01:47:59;1;1;
40371;PMS5003;28564;53.346;-6.554;2023-03-23T01:50:32;6;3;
40371;PMS5003;28564;53.346;-6.554;2023-03-23T01:53:05;1;1;
40371;PMS5003;28564;53.346;-6.554;2023-03-23T01:55:34;0;0;
40371;PMS5003;28564;53.346;-6.554;2023-03-23T01:58:03;2;2;
40371;PMS5003;28564;53.346;-6.554;2023-03-23T02:00:31;3;1;
40371;PMS5003;28564;53.346;-6.554;2023-03-23T02:02:59;2;1;
40371;PMS5003;28564;53.346;-6.554;2023-03-23T02:05:29;0;0;
40371;PMS5003;28564;53.346;-6.554;2023-03-23T02:07:58;2;1;
40371;PMS5003;28564;53.346;-6.554;2023-03-23T02:10:29;3;1;
40371;PMS5003;28564;53.346;-6.554;2023-03-23T02:12:56;1;1;
40371;PMS5003;28564;53.346;-6.554;2023-03-23T02:15:25;0;0;
40371;PMS5003;28564;53.346;-6.554;2023-03-23T02:17:57;1;1;
40371;PMS5003;28564;53.346;-6.554;2023-03-23T02:20:34;1;1;
40371;PMS5003;28564;53.346;-6.554;2023-03-23T02:23:24;2;2;
40371;PMS5003;28564;53.346;-6.554;2023-03-23T02:26:16;2;1;
40371;PMS5003;28564;53.346;-6.554;2023-03-23T02:29:02;0;0;
40371;PMS5003;28564;53.346;-6.554;2023-03-23T02:31:50;3;2;
40371;PMS5003;28564;53.346;-6.554;2023-03-23T02:34:28;2;1;
40371;PMS5003;28564;53.346;-6.554;2023-03-23T02:36:59;3;1;
40371;PMS5003;28564;53.346;-6.554;2023-03-23T02:39:30;1;1;
40371;PMS5003;28564;53.346;-6.554;2023-03-23T02:42:01;2;1;
40371;PMS5003;28564;53.346;-6.554;2023-03-23T02:44:31;3;3;
40371;PMS5003;28564;53.346;-6.554;2023-03-23T02:47:02;2;2;
40371;PMS5003;28564;53.346;-6.554;2023-03-23T02:49:34;3;2;
40371;PMS5003;28564;53.346;-6.554;2023-03-23T02:52:04;2;2;
40371;PMS5003;28564;53.346;-6.554;2023-03-23T02:54:35;4;3;
40371;PMS5003;28564;53.346;-6.554;2023-03-23T02:57:03;2;2;
40371;PMS5003;28564;53.346;-6.554;2023-03-23T02:59:31;4;2;
40371;PMS5003;28564;53.346;-6.554;2023-03-23T03:02:00;1;1;
40371;PMS5003;28564;53.346;-6.554;2023-03-23T03:04:31;3;3;
40371;PMS5003;28564;53.346;-6.554;2023-03-23T03:07:03;5;2;
40371;PMS5003;28564;53.346;-6.554;2023-03-23T03:09:41;2;2;
40371;PMS5003;28564;53.346;-6.554;2023-03-23T03:12:14;2;2;
40371;PMS5003;28564;53.346;-6.554;2023-03-23T03:14:51;3;1;
40371;PMS5003;28564;53.346;-6.554;2023-03-23T03:17:29;5;3;
40371;PMS5003;28564;53.346;-6.554;2023-03-23T03:19:59;5;2;
40371;PMS5003;28564;53.346;-6.554;2023-03-23T03:22:30;1;1;
40371;PMS5003;28564;53.346;-6.554;2023-03-23T03:24:57;3;2;
40371;PMS5003;28564;53.346;-6.554;2023-03-23T03:27:26;5;4;
40371;PMS5003;28564;53.346;-6.554;2023-03-23T03:29:56;2;0;
40371;PMS5003;28564;53.346;-6.554;2023-03-23T03:32:28;3;2;
40371;PMS5003;28564;53.346;-6.554;2023-03-23T03:34:58;2;1;
40371;PMS5003;28564;53.346;-6.554;2023-03-23T03:37:27;3;2;
40371;PMS5003;28564;53.346;-6.554;2023-03-23T03:40:00;2;2;
40371;PMS5003;28564;53.346;-6.554;2023-03-23T03:42:27;6;2;
40371;PMS5003;28564;53.346;-6.554;2023-03-23T03:44:55;1;1;
40371;PMS5003;28564;53.346;-6.554;2023-03-23T03:47:22;4;1;
40371;PMS5003;28564;53.346;-6.554;2023-03-23T03:49:49;2;1;
40371;PMS5003;28564;53.346;-6.554;2023-03-23T03:52:17;4;1;
40371;PMS5003;28564;53.346;-6.554;2023-03-23T03:54:44;2;1;
40371;PMS5003;28564;53.346;-6.554;2023-03-23T03:57:11;3;1;
40371;PMS5003;28564;53.346;-6.554;2023-03-23T03:59:38;5;2;
40371;PMS5003;28564;53.346;-6.554;2023-03-23T04:02:05;2;2;
40371;PMS5003;28564;53.346;-6.554;2023-03-23T04:04:33;3;2;
40371;PMS5003;28564;53.346;-6.554;2023-03-23T04:07:00;3;2;
40371;PMS5003;28564;53.346;-6.554;2023-03-23T04:09:27;3;0;
40371;PMS5003;28564;53.346;-6.554;2023-03-23T04:11:55;2;2;
40371;PMS5003;28564;53.346;-6.554;2023-03-23T04:14:22;2;1;
40371;PMS5003;28564;53.346;-6.554;2023-03-23T04:16:49;4;1;
40371;PMS5003;28564;53.346;-6.554;2023-03-23T04:19:17;2;1;
40371;PMS5003;28564;53.346;-6.554;2023-03-23T04:21:44;2;1;
40371;PMS5003;28564;53.346;-6.554;2023-03-23T04:24:11;2;2;
40371;PMS5003;28564;53.346;-6.554;2023-03-23T04:26:38;2;1;
40371;PMS5003;28564;53.346;-6.554;2023-03-23T04:29:06;4;1;
40371;PMS5003;28564;53.346;-6.554;2023-03-23T04:31:33;2;0;
40371;PMS5003;28564;53.346;-6.554;2023-03-23T04:34:00;2;1;
40371;PMS5003;28564;53.346;-6.554;2023-03-23T04:36:27;1;0;
40371;PMS5003;28564;53.346;-6.554;2023-03-23T04:38:55;2;1;
40371;PMS5003;28564;53.346;-6.554;2023-03-23T04:41:22;0;0;
40371;PMS5003;28564;53.346;-6.554;2023-03-23T04:43:49;0;0;
40371;PMS5003;28564;53.346;-6.554;2023-03-23T04:46:16;2;1;
40371;PMS5003;28564;53.346;-6.554;2023-03-23T04:48:44;2;1;
40371;PMS5003;28564;53.346;-6.554;2023-03-23T04:51:12;4;2;
40371;PMS5003;28564;53.346;-6.554;2023-03-23T04:53:40;7;2;
40371;PMS5003;28564;53.346;-6.554;2023-03-23T04:56:07;3;2;
40371;PMS5003;28564;53.346;-6.554;2023-03-23T04:58:34;3;3;
40371;PMS5003;28564;53.346;-6.554;2023-03-23T05:01:02;2;0;
40371;PMS5003;28564;53.346;-6.554;2023-03-23T05:03:29;0;0;
40371;PMS5003;28564;53.346;-6.554;2023-03-23T05:05:56;2;2;
40371;PMS5003;28564;53.346;-6.554;2023-03-23T05:08:23;2;0;
40371;PMS5003;28564;53.346;-6.554;2023-03-23T05:10:51;1;1;
40371;PMS5003;28564;53.346;-6.554;2023-03-23T05:13:20;3;1;
40371;PMS5003;28564;53.346;-6.554;2023-03-23T05:15:47;2;2;
40371;PMS5003;28564;53.346;-6.554;2023-03-23T05:18:16;3;1;
40371;PMS5003;28564;53.346;-6.554;2023-03-23T05:20:43;1;1;
40371;PMS5003;28564;53.346;-6.554;2023-03-23T05:23:11;0;0;
40371;PMS5003;28564;53.346;-6.554;2023-03-23T05:25:38;1;1;
40371;PMS5003;28564;53.346;-6.554;2023-03-23T05:28:06;1;1;
40371;PMS5003;28564;53.346;-6.554;2023-03-23T05:30:34;1;1;
40371;PMS5003;28564;53.346;-6.554;2023-03-23T05:33:01;3;2;
40371;PMS5003;28564;53.346;-6.554;2023-03-23T05:35:28;3;1;
40371;PMS5003;28564;53.346;-6.554;2023-03-23T05:37:55;2;0;
40371;PMS5003;28564;53.346;-6.554;2023-03-23T05:40:23;1;0;
40371;PMS5003;28564;53.346;-6.554;2023-03-23T05:42:50;1;0;
40371;PMS5003;28564;53.346;-6.554;2023-03-23T05:45:17;2;1;
40371;PMS5003;28564;53.346;-6.554;2023-03-23T05:47:44;0;0;
40371;PMS5003;28564;53.346;-6.554;2023-03-23T05:50:13;3;1;
40371;PMS5003;28564;53.346;-6.554;2023-03-23T05:52:41;1;1;
40371;PMS5003;28564;53.346;-6.554;2023-03-23T05:55:08;2;0;
40371;PMS5003;28564;53.346;-6.554;2023-03-23T05:57:36;1;1;
40371;PMS5003;28564;53.346;-6.554;2023-03-23T06:00:04;1;1;
40371;PMS5003;28564;53.346;-6.554;2023-03-23T06:02:32;1;1;
40371;PMS5003;28564;53.346;-6.554;2023-03-23T06:04:59;1;1;
40371;PMS5003;28564;53.346;-6.554;2023-03-23T06:07:27;1;0;
40371;PMS5003;28564;53.346;-6.554;2023-03-23T06:09:55;0;0;
40371;PMS5003;28564;53.346;-6.554;2023-03-23T06:12:22;3;0;
40371;PMS5003;28564;53.346;-6.554;2023-03-23T06:14:49;4;1;
40371;PMS5003;28564;53.346;-6.554;2023-03-23T06:17:17;1;1;
40371;PMS5003;28564;53.346;-6.554;2023-03-23T06:19:44;0;0;
40371;PMS5003;28564;53.346;-6.554;2023-03-23T06:22:11;1;1;
40371;PMS5003;28564;53.346;-6.554;2023-03-23T06:24:39;1;0;
40371;PMS5003;28564;53.346;-6.554;2023-03-23T06:27:06;2;1;
40371;PMS5003;28564;53.346;-6.554;2023-03-23T06:29:34;0;0;
40371;PMS5003;28564;53.346;-6.554;2023-03-23T06:32:01;3;0;
40371;PMS5003;28564;53.346;-6.554;2023-03-23T06:34:30;2;1;
40371;PMS5003;28564;53.346;-6.554;2023-03-23T06:36:58;4;3;
40371;PMS5003;28564;53.346;-6.554;2023-03-23T06:39:25;4;3;
40371;PMS5003;28564;53.346;-6.554;2023-03-23T06:41:53;1;1;
40371;PMS5003;28564;53.346;-6.554;2023-03-23T06:44:22;0;0;
40371;PMS5003;28564;53.346;-6.554;2023-03-23T06:46:50;4;1;
40371;PMS5003;28564;53.346;-6.554;2023-03-23T06:49:17;2;1;
40371;PMS5003;28564;53.346;-6.554;2023-03-23T06:51:44;3;1;
40371;PMS5003;28564;53.346;-6.554;2023-03-23T06:54:12;2;1;
40371;PMS5003;28564;53.346;-6.554;2023-03-23T06:56:39;4;1;
40371;PMS5003;28564;53.346;-6.554;2023-03-23T06:59:06;0;0;
40371;PMS5003;28564;53.346;-6.554;2023-03-23T07:01:33;4;1;
40371;PMS5003;28564;53.346;-6.554;2023-03-23T07:04:01;1;1;
40371;PMS5003;28564;53.346;-6.554;2023-03-23T07:06:28;1;1;
40371;PMS5003;28564;53.346;-6.554;2023-03-23T07:08:55;3;0;
40371;PMS5003;28564;53.346;-6.554;2023-03-23T07:11:23;3;1;
40371;PMS5003;28564;53.346;-6.554;2023-03-23T07:13:50;3;1;
40371;PMS5003;28564;53.346;-6.554;2023-03-23T07:16:17;1;1;
40371;PMS5003;28564;53.346;-6.554;2023-03-23T07:18:44;2;1;
40371;PMS5003;28564;53.346;-6.554;2023-03-23T07:21:12;3;1;
40371;PMS5003;28564;53.346;-6.554;2023-03-23T07:23:39;0;0;
40371;PMS5003;28564;53.346;-6.554;2023-03-23T07:26:07;3;0;
40371;PMS5003;28564;53.346;-6.554;2023-03-23T07:28:34;4;1;
40371;PMS5003;28564;53.346;-6.554;2023-03-23T07:31:01;4;2;
40371;PMS5003;28564;53.346;-6.554;2023-03-23T07:33:29;5;2;
40371;PMS5003;28564;53.346;-6.554;2023-03-23T07:35:58;11;4;
40371;PMS5003;28564;53.346;-6.554;2023-03-23T07:38:25;3;2;
40371;PMS5003;28564;53.346;-6.554;2023-03-23T07:40:52;2;2;
40371;PMS5003;28564;53.346;-6.554;2023-03-23T07:43:20;1;1;
40371;PMS5003;28564;53.346;-6.554;2023-03-23T07:45:48;4;2;
40371;PMS5003;28564;53.346;-6.554;2023-03-23T07:48:16;5;3;
40371;PMS5003;28564;53.346;-6.554;2023-03-23T07:50:43;6;4;
40371;PMS5003;28564;53.346;-6.554;2023-03-23T07:53:11;5;2;
40371;PMS5003;28564;53.346;-6.554;2023-03-23T07:55:38;1;1;
40371;PMS5003;28564;53.346;-6.554;2023-03-23T07:58:05;5;3;
40371;PMS5003;28564;53.346;-6.554;2023-03-23T08:00:33;1;1;
40371;PMS5003;28564;53.346;-6.554;2023-03-23T08:03:00;1;1;
40371;PMS5003;28564;53.346;-6.554;2023-03-23T08:05:27;3;2;
40371;PMS5003;28564;53.346;-6.554;2023-03-23T08:07:54;3;1;
40371;PMS5003;28564;53.346;-6.554;2023-03-23T08:10:22;1;1;
40371;PMS5003;28564;53.346;-6.554;2023-03-23T08:12:51;2;2;
40371;PMS5003;28564;53.346;-6.554;2023-03-23T08:15:19;1;1;
40371;PMS5003;28564;53.346;-6.554;2023-03-23T08:17:47;3;2;
40371;PMS5003;28564;53.346;-6.554;2023-03-23T08:20:14;4;2;
40371;PMS5003;28564;53.346;-6.554;2023-03-23T08:22:42;5;2;
40371;PMS5003;28564;53.346;-6.554;2023-03-23T08:25:12;3;2;
40371;PMS5003;28564;53.346;-6.554;2023-03-23T08:27:40;3;3;
40371;PMS5003;28564;53.346;-6.554;2023-03-23T08:30:08;6;2;
40371;PMS5003;28564;53.346;-6.554;2023-03-23T08:32:36;3;2;
40371;PMS5003;28564;53.346;-6.554;2023-03-23T08:35:04;2;1;
40371;PMS5003;28564;53.346;-6.554;2023-03-23T08:37:32;3;2;
40371;PMS5003;28564;53.346;-6.554;2023-03-23T08:39:59;2;0;
40371;PMS5003;28564;53.346;-6.554;2023-03-23T08:42:27;3;1;
40371;PMS5003;28564;53.346;-6.554;2023-03-23T08:44:54;5;2;
40371;PMS5003;28564;53.346;-6.554;2023-03-23T08:47:21;1;1;
40371;PMS5003;28564;53.346;-6.554;2023-03-23T08:49:48;2;1;
40371;PMS5003;28564;53.346;-6.554;2023-03-23T08:52:16;2;2;
40371;PMS5003;28564;53.346;-6.554;2023-03-23T08:54:43;3;0;
40371;PMS5003;28564;53.346;-6.554;2023-03-23T08:57:10;1;1;
40371;PMS5003;28564;53.346;-6.554;2023-03-23T08:59:37;2;1;
40371;PMS5003;28564;53.346;-6.554;2023-03-23T09:02:05;2;1;
40371;PMS5003;28564;53.346;-6.554;2023-03-23T09:04:32;1;1;
40371;PMS5003;28564;53.346;-6.554;2023-03-23T09:07:00;2;1;
40371;PMS5003;28564;53.346;-6.554;2023-03-23T09:09:27;1;1;
40371;PMS5003;28564;53.346;-6.554;2023-03-23T09:11:54;2;0;
40371;PMS5003;28564;53.346;-6.554;2023-03-23T09:14:21;1;1;
40371;PMS5003;28564;53.346;-6.554;2023-03-23T09:16:48;4;3;
40371;PMS5003;28564;53.346;-6.554;2023-03-23T09:19:16;2;2;
40371;PMS5003;28564;53.346;-6.554;2023-03-23T09:21:43;1;1;
40371;PMS5003;28564;53.346;-6.554;2023-03-23T09:24:10;1;1;
40371;PMS5003;28564;53.346;-6.554;2023-03-23T09:26:37;3;2;
40371;PMS5003;28564;53.346;-6.554;2023-03-23T09:29:05;2;1;
40371;PMS5003;28564;53.346;-6.554;2023-03-23T09:31:32;3;1;
40371;PMS5003;28564;53.346;-6.554;2023-03-23T09:33:59;3;1;
40371;PMS5003;28564;53.346;-6.554;2023-03-23T09:36:26;1;1;
40371;PMS5003;28564;53.346;-6.554;2023-03-23T09:38:53;2;1;
40371;PMS5003;28564;53.346;-6.554;2023-03-23T09:41:27;2;1;
40371;PMS5003;28564;53.346;-6.554;2023-03-23T09:44:09;4;2;
40371;PMS5003;28564;53.346;-6.554;2023-03-23T09:46:48;4;3;
40371;PMS5003;28564;53.346;-6.554;2023-03-23T09:49:22;4;1;
40371;PMS5003;28564;53.346;-6.554;2023-03-23T09:51:53;3;1;
40371;PMS5003;28564;53.346;-6.554;2023-03-23T09:54:24;3;2;
40371;PMS5003;28564;53.346;-6.554;2023-03-23T09:56:54;2;1;
40371;PMS5003;28564;53.346;-6.554;2023-03-23T09:59:24;5;3;
40371;PMS5003;28564;53.346;-6.554;2023-03-23T10:03:56;3;2;
40371;PMS5003;28564;53.346;-6.554;2023-03-23T10:06:29;5;2;
40371;PMS5003;28564;53.346;-6.554;2023-03-23T10:08:56;5;1;
40371;PMS5003;28564;53.346;-6.554;2023-03-23T10:11:28;4;2;
40371;PMS5003;28564;53.346;-6.554;2023-03-23T10:14:09;4;1;
40371;PMS5003;28564;53.346;-6.554;2023-03-23T10:16:45;4;4;
40371;PMS5003;28564;53.346;-6.554;2023-03-23T10:19:28;14;10;
40371;PMS5003;28564;53.346;-6.554;2023-03-23T10:22:02;10;10;
40371;PMS5003;28564;53.346;-6.554;2023-03-23T10:24:36;11;9;
40371;PMS5003;28564;53.346;-6.554;2023-03-23T10:27:13;11;11;
40371;PMS5003;28564;53.346;-6.554;2023-03-23T10:29:46;10;9;
40371;PMS5003;28564;53.346;-6.554;2023-03-23T10:32:17;9;8;
40371;PMS5003;28564;53.346;-6.554;2023-03-23T10:34:49;5;4;
40371;PMS5003;28564;53.346;-6.554;2023-03-23T10:37:21;3;1;
40371;PMS5003;28564;53.346;-6.554;2023-03-23T10:39:53;7;2;
40371;PMS5003;28564;53.346;-6.554;2023-03-23T10:42:22;3;2;
40371;PMS5003;28564;53.346;-6.554;2023-03-23T10:44:58;1;1;
40371;PMS5003;28564;53.346;-6.554;2023-03-23T10:47:27;0;0;
40371;PMS5003;28564;53.346;-6.554;2023-03-23T10:49:56;2;1;
40371;PMS5003;28564;53.346;-6.554;2023-03-23T10:52:27;2;1;
40371;PMS5003;28564;53.346;-6.554;2023-03-23T10:55:02;2;2;
40371;PMS5003;28564;53.346;-6.554;2023-03-23T10:57:32;3;0;
40371;PMS5003;28564;53.346;-6.554;2023-03-23T11:00:02;1;1;
40371;PMS5003;28564;53.346;-6.554;2023-03-23T11:02:36;2;1;
40371;PMS5003;28564;53.346;-6.554;2023-03-23T11:05:07;2;1;
40371;PMS5003;28564;53.346;-6.554;2023-03-23T11:07:47;3;0;
40371;PMS5003;28564;53.346;-6.554;2023-03-23T11:10:18;2;2;
40371;PMS5003;28564;53.346;-6.554;2023-03-23T11:12:48;6;1;
40371;PMS5003;28564;53.346;-6.554;2023-03-23T11:15:22;2;0;
40371;PMS5003;28564;53.346;-6.554;2023-03-23T11:17:57;2;2;
40371;PMS5003;28564;53.346;-6.554;2023-03-23T11:20:26;1;0;
40371;PMS5003;28564;53.346;-6.554;2023-03-23T11:22:55;1;1;
40371;PMS5003;28564;53.346;-6.554;2023-03-23T11:25:23;3;1;
40371;PMS5003;28564;53.346;-6.554;2023-03-23T11:27:50;1;1;
40371;PMS5003;28564;53.346;-6.554;2023-03-23T11:30:20;2;1;
40371;PMS5003;28564;53.346;-6.554;2023-03-23T11:32:50;1;0;
40371;PMS5003;28564;53.346;-6.554;2023-03-23T11:35:19;0;0;
40371;PMS5003;28564;53.346;-6.554;2023-03-23T11:37:49;1;0;
40371;PMS5003;28564;53.346;-6.554;2023-03-23T11:40:20;2;1;
40371;PMS5003;28564;53.346;-6.554;2023-03-23T11:42:49;2;0;
40371;PMS5003;28564;53.346;-6.554;2023-03-23T11:45:30;0;0;
40371;PMS5003;28564;53.346;-6.554;2023-03-23T11:48:03;2;0;
40371;PMS5003;28564;53.346;-6.554;2023-03-23T11:50:44;1;1;
40371;PMS5003;28564;53.346;-6.554;2023-03-23T11:53:20;2;1;
40371;PMS5003;28564;53.346;-6.554;2023-03-23T11:55:58;1;1;
40371;PMS5003;28564;53.346;-6.554;2023-03-23T11:58:35;4;2;
40371;PMS5003;28564;53.346;-6.554;2023-03-23T12:01:04;1;1;
40371;PMS5003;28564;53.346;-6.554;2023-03-23T12:03:40;1;1;
40371;PMS5003;28564;53.346;-6.554;2023-03-23T12:06:19;0;0;
40371;PMS5003;28564;53.346;-6.554;2023-03-23T12:08:59;1;1;
40371;PMS5003;28564;53.346;-6.554;2023-03-23T12:11:38;4;1;
40371;PMS5003;28564;53.346;-6.554;2023-03-23T12:14:16;1;1;
40371;PMS5003;28564;53.346;-6.554;2023-03-23T12:16:50;3;1;
40371;PMS5003;28564;53.346;-6.554;2023-03-23T12:19:28;1;1;
40371;PMS5003;28564;53.346;-6.554;2023-03-23T12:22:02;1;1;
40371;PMS5003;28564;53.346;-6.554;2023-03-23T12:24:42;2;2;
40371;PMS5003;28564;53.346;-6.554;2023-03-23T12:27:24;2;1;
40371;PMS5003;28564;53.346;-6.554;2023-03-23T12:30:02;4;2;
40371;PMS5003;28564;53.346;-6.554;2023-03-23T12:32:42;2;1;
40371;PMS5003;28564;53.346;-6.554;2023-03-23T12:35:21;4;1;
40371;PMS5003;28564;53.346;-6.554;2023-03-23T12:38:01;1;1;
40371;PMS5003;28564;53.346;-6.554;2023-03-23T12:40:44;4;1;
40371;PMS5003;28564;53.346;-6.554;2023-03-23T12:43:26;2;1;
40371;PMS5003;28564;53.346;-6.554;2023-03-23T12:46:02;3;1;
40371;PMS5003;28564;53.346;-6.554;2023-03-23T12:48:39;5;0;
40371;PMS5003;28564;53.346;-6.554;2023-03-23T12:51:11;1;1;
40371;PMS5003;28564;53.346;-6.554;2023-03-23T12:53:44;2;0;
40371;PMS5003;28564;53.346;-6.554;2023-03-23T12:56:20;2;1;
40371;PMS5003;28564;53.346;-6.554;2023-03-23T12:58:53;1;1;
40371;PMS5003;28564;53.346;-6.554;2023-03-23T13:01:35;1;1;
40371;PMS5003;28564;53.346;-6.554;2023-03-23T13:04:07;0;0;
40371;PMS5003;28564;53.346;-6.554;2023-03-23T13:06:38;2;1;
40371;PMS5003;28564;53.346;-6.554;2023-03-23T13:09:10;4;2;
40371;PMS5003;28564;53.346;-6.554;2023-03-23T13:11:41;5;3;
40371;PMS5003;28564;53.346;-6.554;2023-03-23T13:14:16;1;1;
40371;PMS5003;28564;53.346;-6.554;2023-03-23T13:16:51;2;1;
40371;PMS5003;28564;53.346;-6.554;2023-03-23T13:19:29;1;1;
40371;PMS5003;28564;53.346;-6.554;2023-03-23T13:22:05;3;1;
40371;PMS5003;28564;53.346;-6.554;2023-03-23T13:24:50;6;1;
40371;PMS5003;28564;53.346;-6.554;2023-03-23T13:27:22;1;1;
40371;PMS5003;28564;53.346;-6.554;2023-03-23T13:29:51;0;0;
40371;PMS5003;28564;53.346;-6.554;2023-03-23T13:32:18;1;1;
40371;PMS5003;28564;53.346;-6.554;2023-03-23T13:34:46;2;2;
40371;PMS5003;28564;53.346;-6.554;2023-03-23T13:37:20;0;0;
40371;PMS5003;28564;53.346;-6.554;2023-03-23T13:39:51;0;0;
40371;PMS5003;28564;53.346;-6.554;2023-03-23T13:42:20;1;1;
40371;PMS5003;28564;53.346;-6.554;2023-03-23T13:45:04;2;0;
40371;PMS5003;28564;53.346;-6.554;2023-03-23T13:47:37;2;1;
40371;PMS5003;28564;53.346;-6.554;2023-03-23T13:50:10;1;1;
40371;PMS5003;28564;53.346;-6.554;2023-03-23T13:52:46;7;2;
40371;PMS5003;28564;53.346;-6.554;2023-03-23T13:55:20;1;1;
40371;PMS5003;28564;53.346;-6.554;2023-03-23T13:57:56;2;1;
40371;PMS5003;28564;53.346;-6.554;2023-03-23T14:00:37;0;0;
40371;PMS5003;28564;53.346;-6.554;2023-03-23T14:03:13;4;2;
40371;PMS5003;28564;53.346;-6.554;2023-03-23T14:05:45;5;2;
40371;PMS5003;28564;53.346;-6.554;2023-03-23T14:08:21;1;0;
40371;PMS5003;28564;53.346;-6.554;2023-03-23T14:10:52;2;1;
40371;PMS5003;28564;53.346;-6.554;2023-03-23T14:13:23;3;2;
40371;PMS5003;28564;53.346;-6.554;2023-03-23T14:15:56;0;0;
40371;PMS5003;28564;53.346;-6.554;2023-03-23T14:18:27;2;0;
40371;PMS5003;28564;53.346;-6.554;2023-03-23T14:21:00;3;2;
40371;PMS5003;28564;53.346;-6.554;2023-03-23T14:23:30;3;1;
40371;PMS5003;28564;53.346;-6.554;2023-03-23T14:26:00;2;1;
40371;PMS5003;28564;53.346;-6.554;2023-03-23T14:28:28;2;2;
40371;PMS5003;28564;53.346;-6.554;2023-03-23T14:30:56;1;1;
40371;PMS5003;28564;53.346;-6.554;2023-03-23T14:33:24;0;0;
40371;PMS5003;28564;53.346;-6.554;2023-03-23T14:35:52;4;2;
40371;PMS5003;28564;53.346;-6.554;2023-03-23T14:38:21;1;1;
40371;PMS5003;28564;53.346;-6.554;2023-03-23T14:40:50;2;1;
40371;PMS5003;28564;53.346;-6.554;2023-03-23T14:43:19;2;2;
40371;PMS5003;28564;53.346;-6.554;2023-03-23T14:45:50;2;1;
40371;PMS5003;28564;53.346;-6.554;2023-03-23T14:48:18;5;1;
40371;PMS5003;28564;53.346;-6.554;2023-03-23T14:50:49;3;1;
40371;PMS5003;28564;53.346;-6.554;2023-03-23T14:53:18;6;4;
40371;PMS5003;28564;53.346;-6.554;2023-03-23T14:55:48;1;1;
40371;PMS5003;28564;53.346;-6.554;2023-03-23T14:58:17;4;2;
40371;PMS5003;28564;53.346;-6.554;2023-03-23T15:00:47;2;1;
40371;PMS5003;28564;53.346;-6.554;2023-03-23T15:03:19;5;1;
40371;PMS5003;28564;53.346;-6.554;2023-03-23T15:05:48;6;0;
40371;PMS5003;28564;53.346;-6.554;2023-03-23T15:08:22;2;2;
40371;PMS5003;28564;53.346;-6.554;2023-03-23T15:10:53;4;3;
40371;PMS5003;28564;53.346;-6.554;2023-03-23T15:13:23;4;2;
40371;PMS5003;28564;53.346;-6.554;2023-03-23T15:15:50;2;2;
40371;PMS5003;28564;53.346;-6.554;2023-03-23T15:18:25;5;3;
40371;PMS5003;28564;53.346;-6.554;2023-03-23T15:20:57;2;1;
40371;PMS5003;28564;53.346;-6.554;2023-03-23T15:23:34;1;1;
40371;PMS5003;28564;53.346;-6.554;2023-03-23T15:26:15;3;3;
40371;PMS5003;28564;53.346;-6.554;2023-03-23T15:28:49;2;1;
40371;PMS5003;28564;53.346;-6.554;2023-03-23T15:31:24;4;2;
40371;PMS5003;28564;53.346;-6.554;2023-03-23T15:33:55;0;0;
40371;PMS5003;28564;53.346;-6.554;2023-03-23T15:36:26;3;2;
40371;PMS5003;28564;53.346;-6.554;2023-03-23T15:38:58;2;1;
40371;PMS5003;28564;53.346;-6.554;2023-03-23T15:41:26;1;1;
40371;PMS5003;28564;53.346;-6.554;2023-03-23T15:43:56;0;0;
40371;PMS5003;28564;53.346;-6.554;2023-03-23T15:46:24;2;2;
40371;PMS5003;28564;53.346;-6.554;2023-03-23T15:48:53;3;1;
40371;PMS5003;28564;53.346;-6.554;2023-03-23T15:51:34;0;0;
40371;PMS5003;28564;53.346;-6.554;2023-03-23T15:54:02;5;1;
40371;PMS5003;28564;53.346;-6.554;2023-03-23T15:56:34;2;1;
40371;PMS5003;28564;53.346;-6.554;2023-03-23T15:59:01;2;0;
40371;PMS5003;28564;53.346;-6.554;2023-03-23T16:01:29;4;2;
40371;PMS5003;28564;53.346;-6.554;2023-03-23T16:03:57;2;2;
40371;PMS5003;28564;53.346;-6.554;2023-03-23T16:06:29;1;1;
40371;PMS5003;28564;53.346;-6.554;2023-03-23T16:08:58;2;1;
40371;PMS5003;28564;53.346;-6.554;2023-03-23T16:11:27;2;2;
40371;PMS5003;28564;53.346;-6.554;2023-03-23T16:13:56;0;0;
40371;PMS5003;28564;53.346;-6.554;2023-03-23T16:16:24;1;1;
40371;PMS5003;28564;53.346;-6.554;2023-03-23T16:18:55;2;1;
40371;PMS5003;28564;53.346;-6.554;2023-03-23T16:21:22;2;2;
40371;PMS5003;28564;53.346;-6.554;2023-03-23T16:23:50;2;2;
40371;PMS5003;28564;53.346;-6.554;2023-03-23T16:26:18;2;2;
40371;PMS5003;28564;53.346;-6.554;2023-03-23T16:28:51;0;0;
40371;PMS5003;28564;53.346;-6.554;2023-03-23T16:31:18;3;1;
40371;PMS5003;28564;53.346;-6.554;2023-03-23T16:33:46;5;2;
40371;PMS5003;28564;53.346;-6.554;2023-03-23T16:36:18;3;1;
40371;PMS5003;28564;53.346;-6.554;2023-03-23T16:38:46;4;2;
40371;PMS5003;28564;53.346;-6.554;2023-03-23T16:41:19;1;1;
40371;PMS5003;28564;53.346;-6.554;2023-03-23T16:43:46;1;1;
40371;PMS5003;28564;53.346;-6.554;2023-03-23T16:46:13;2;1;
40371;PMS5003;28564;53.346;-6.554;2023-03-23T16:48:40;4;2;
40371;PMS5003;28564;53.346;-6.554;2023-03-23T16:51:08;4;2;
40371;PMS5003;28564;53.346;-6.554;2023-03-23T16:53:36;2;2;
40371;PMS5003;28564;53.346;-6.554;2023-03-23T16:56:03;4;2;